sensor_id;sensor_type;location;lat;lon;timestamp;temperature;humidity
72814;DHT22;60945;48.516;-2.768;2024-01-25T00:01:28;12.00;90.90
72814;DHT22;60945;48.516;-2.768;2024-01-25T00:03:54;12.00;91.30
72814;DHT22;60945;48.516;-2.768;2024-01-25T00:06:20;12.00;91.50
72814;DHT22;60945;48.516;-2.768;2024-01-25T00:08:46;11.90;91.60
72814;DHT22;60945;48.516;-2.768;2024-01-25T00:11:12;11.90;91.80
72814;DHT22;60945;48.516;-2.768;2024-01-25T00:13:38;11.90;91.90
72814;DHT22;60945;48.516;-2.768;2024-01-25T00:16:04;11.90;91.90
72814;DHT22;60945;48.516;-2.768;2024-01-25T00:18:30;11.90;92.10
72814;DHT22;60945;48.516;-2.768;2024-01-25T00:20:56;11.90;92.20
72814;DHT22;60945;48.516;-2.768;2024-01-25T00:23:21;11.80;92.60
72814;DHT22;60945;48.516;-2.768;2024-01-25T00:25:47;11.80;92.40
72814;DHT22;60945;48.516;-2.768;2024-01-25T00:28:13;11.80;92.60
72814;DHT22;60945;48.516;-2.768;2024-01-25T00:30:39;11.80;92.70
72814;DHT22;60945;48.516;-2.768;2024-01-25T00:33:05;11.90;92.60
72814;DHT22;60945;48.516;-2.768;2024-01-25T00:35:31;11.80;92.70
72814;DHT22;60945;48.516;-2.768;2024-01-25T00:37:57;11.80;92.60
72814;DHT22;60945;48.516;-2.768;2024-01-25T00:40:23;11.80;92.70
72814;DHT22;60945;48.516;-2.768;2024-01-25T00:42:49;11.70;92.90
72814;DHT22;60945;48.516;-2.768;2024-01-25T00:45:23;11.70;93.00
72814;DHT22;60945;48.516;-2.768;2024-01-25T00:47:49;11.80;93.00
72814;DHT22;60945;48.516;-2.768;2024-01-25T00:50:16;11.80;92.30
72814;DHT22;60945;48.516;-2.768;2024-01-25T00:52:47;11.80;92.30
72814;DHT22;60945;48.516;-2.768;2024-01-25T00:55:14;11.70;92.60
72814;DHT22;60945;48.516;-2.768;2024-01-25T00:57:40;11.80;92.60
72814;DHT22;60945;48.516;-2.768;2024-01-25T01:00:06;11.80;92.30
72814;DHT22;60945;48.516;-2.768;2024-01-25T01:02:36;11.80;91.90
72814;DHT22;60945;48.516;-2.768;2024-01-25T01:05:04;11.90;92.00
72814;DHT22;60945;48.516;-2.768;2024-01-25T01:07:30;12.00;91.00
72814;DHT22;60945;48.516;-2.768;2024-01-25T01:09:56;12.10;89.80
72814;DHT22;60945;48.516;-2.768;2024-01-25T01:12:21;12.20;89.60
72814;DHT22;60945;48.516;-2.768;2024-01-25T01:14:47;12.20;89.40
72814;DHT22;60945;48.516;-2.768;2024-01-25T01:17:14;12.10;89.80
72814;DHT22;60945;48.516;-2.768;2024-01-25T01:19:40;12.30;89.60
72814;DHT22;60945;48.516;-2.768;2024-01-25T01:22:06;12.40;88.70
72814;DHT22;60945;48.516;-2.768;2024-01-25T01:24:31;12.50;88.10
72814;DHT22;60945;48.516;-2.768;2024-01-25T01:26:57;12.50;88.10
72814;DHT22;60945;48.516;-2.768;2024-01-25T01:29:23;12.60;88.10
72814;DHT22;60945;48.516;-2.768;2024-01-25T01:31:49;12.70;87.60
72814;DHT22;60945;48.516;-2.768;2024-01-25T01:34:15;12.80;86.40
72814;DHT22;60945;48.516;-2.768;2024-01-25T01:36:43;12.70;87.00
72814;DHT22;60945;48.516;-2.768;2024-01-25T01:39:09;12.80;86.50
72814;DHT22;60945;48.516;-2.768;2024-01-25T01:41:34;12.80;87.10
72814;DHT22;60945;48.516;-2.768;2024-01-25T01:44:00;12.80;86.70
72814;DHT22;60945;48.516;-2.768;2024-01-25T01:46:36;12.90;86.50
72814;DHT22;60945;48.516;-2.768;2024-01-25T01:49:12;12.90;86.00
72814;DHT22;60945;48.516;-2.768;2024-01-25T01:51:40;12.80;86.00
72814;DHT22;60945;48.516;-2.768;2024-01-25T01:54:07;12.70;87.10
72814;DHT22;60945;48.516;-2.768;2024-01-25T01:56:33;12.80;86.70
72814;DHT22;60945;48.516;-2.768;2024-01-25T01:59:05;12.90;86.10
72814;DHT22;60945;48.516;-2.768;2024-01-25T02:01:33;13.00;85.60
72814;DHT22;60945;48.516;-2.768;2024-01-25T02:03:59;13.00;85.50
72814;DHT22;60945;48.516;-2.768;2024-01-25T02:06:25;13.00;85.60
72814;DHT22;60945;48.516;-2.768;2024-01-25T02:08:51;13.00;85.40
72814;DHT22;60945;48.516;-2.768;2024-01-25T02:11:19;13.10;85.00
72814;DHT22;60945;48.516;-2.768;2024-01-25T02:13:45;13.00;85.10
72814;DHT22;60945;48.516;-2.768;2024-01-25T02:16:11;12.90;85.70
72814;DHT22;60945;48.516;-2.768;2024-01-25T02:18:37;13.00;85.60
72814;DHT22;60945;48.516;-2.768;2024-01-25T02:21:03;12.90;85.70
72814;DHT22;60945;48.516;-2.768;2024-01-25T02:23:29;12.90;85.50
72814;DHT22;60945;48.516;-2.768;2024-01-25T02:25:55;12.90;86.00
72814;DHT22;60945;48.516;-2.768;2024-01-25T02:28:21;12.80;85.90
72814;DHT22;60945;48.516;-2.768;2024-01-25T02:30:46;12.90;86.00
72814;DHT22;60945;48.516;-2.768;2024-01-25T02:33:12;12.90;85.50
72814;DHT22;60945;48.516;-2.768;2024-01-25T02:35:38;12.90;85.70
72814;DHT22;60945;48.516;-2.768;2024-01-25T02:38:04;12.80;85.90
72814;DHT22;60945;48.516;-2.768;2024-01-25T02:40:29;12.80;86.00
72814;DHT22;60945;48.516;-2.768;2024-01-25T02:42:55;12.60;86.60
72814;DHT22;60945;48.516;-2.768;2024-01-25T02:45:22;12.50;87.20
72814;DHT22;60945;48.516;-2.768;2024-01-25T02:47:48;12.50;87.70
72814;DHT22;60945;48.516;-2.768;2024-01-25T02:50:14;12.60;87.20
72814;DHT22;60945;48.516;-2.768;2024-01-25T02:52:39;12.70;86.60
72814;DHT22;60945;48.516;-2.768;2024-01-25T02:55:05;12.50;86.80
72814;DHT22;60945;48.516;-2.768;2024-01-25T02:57:31;12.50;87.50
72814;DHT22;60945;48.516;-2.768;2024-01-25T02:59:57;12.50;87.60
72814;DHT22;60945;48.516;-2.768;2024-01-25T03:02:22;12.50;87.30
72814;DHT22;60945;48.516;-2.768;2024-01-25T03:04:48;12.50;87.40
72814;DHT22;60945;48.516;-2.768;2024-01-25T03:07:14;12.50;87.60
72814;DHT22;60945;48.516;-2.768;2024-01-25T03:09:40;12.60;87.40
72814;DHT22;60945;48.516;-2.768;2024-01-25T03:12:07;12.70;86.80
72814;DHT22;60945;48.516;-2.768;2024-01-25T03:14:32;12.60;87.10
72814;DHT22;60945;48.516;-2.768;2024-01-25T03:16:58;12.60;86.40
72814;DHT22;60945;48.516;-2.768;2024-01-25T03:19:25;12.60;86.30
72814;DHT22;60945;48.516;-2.768;2024-01-25T03:21:51;12.70;86.30
72814;DHT22;60945;48.516;-2.768;2024-01-25T03:24:17;12.70;85.90
72814;DHT22;60945;48.516;-2.768;2024-01-25T03:26:42;12.70;86.30
72814;DHT22;60945;48.516;-2.768;2024-01-25T03:29:08;12.70;86.10
72814;DHT22;60945;48.516;-2.768;2024-01-25T03:31:34;12.70;85.60
72814;DHT22;60945;48.516;-2.768;2024-01-25T03:34:01;12.80;85.30
72814;DHT22;60945;48.516;-2.768;2024-01-25T03:36:27;12.80;85.20
72814;DHT22;60945;48.516;-2.768;2024-01-25T03:38:53;12.60;85.40
72814;DHT22;60945;48.516;-2.768;2024-01-25T03:41:19;12.60;86.20
72814;DHT22;60945;48.516;-2.768;2024-01-25T03:43:45;12.70;85.70
72814;DHT22;60945;48.516;-2.768;2024-01-25T03:46:12;12.80;84.80
72814;DHT22;60945;48.516;-2.768;2024-01-25T03:48:37;12.80;85.20
72814;DHT22;60945;48.516;-2.768;2024-01-25T03:51:03;12.90;84.90
72814;DHT22;60945;48.516;-2.768;2024-01-25T03:53:29;12.90;84.00
72814;DHT22;60945;48.516;-2.768;2024-01-25T03:55:55;12.70;84.80
72814;DHT22;60945;48.516;-2.768;2024-01-25T03:58:20;12.80;84.70
72814;DHT22;60945;48.516;-2.768;2024-01-25T04:00:46;12.90;84.60
72814;DHT22;60945;48.516;-2.768;2024-01-25T04:03:12;12.90;84.40
72814;DHT22;60945;48.516;-2.768;2024-01-25T04:05:38;12.70;85.10
72814;DHT22;60945;48.516;-2.768;2024-01-25T04:08:05;12.60;85.50
72814;DHT22;60945;48.516;-2.768;2024-01-25T04:10:32;12.60;85.40
72814;DHT22;60945;48.516;-2.768;2024-01-25T04:12:58;12.60;86.00
72814;DHT22;60945;48.516;-2.768;2024-01-25T04:15:25;12.70;85.50
72814;DHT22;60945;48.516;-2.768;2024-01-25T04:17:51;12.80;85.10
72814;DHT22;60945;48.516;-2.768;2024-01-25T04:20:18;12.80;84.80
72814;DHT22;60945;48.516;-2.768;2024-01-25T04:22:44;12.80;84.50
72814;DHT22;60945;48.516;-2.768;2024-01-25T04:25:10;12.80;84.70
72814;DHT22;60945;48.516;-2.768;2024-01-25T04:27:39;12.80;84.90
72814;DHT22;60945;48.516;-2.768;2024-01-25T04:30:06;12.70;84.80
72814;DHT22;60945;48.516;-2.768;2024-01-25T04:32:32;12.60;85.60
72814;DHT22;60945;48.516;-2.768;2024-01-25T04:34:57;12.50;85.60
72814;DHT22;60945;48.516;-2.768;2024-01-25T04:37:23;12.60;85.80
72814;DHT22;60945;48.516;-2.768;2024-01-25T04:39:51;12.70;85.50
72814;DHT22;60945;48.516;-2.768;2024-01-25T04:42:17;12.80;85.20
72814;DHT22;60945;48.516;-2.768;2024-01-25T04:44:43;12.70;84.70
72814;DHT22;60945;48.516;-2.768;2024-01-25T04:47:09;12.70;85.50
72814;DHT22;60945;48.516;-2.768;2024-01-25T04:49:36;12.60;86.00
72814;DHT22;60945;48.516;-2.768;2024-01-25T04:52:01;12.70;86.10
72814;DHT22;60945;48.516;-2.768;2024-01-25T04:54:27;12.70;85.90
72814;DHT22;60945;48.516;-2.768;2024-01-25T04:56:53;12.60;86.00
72814;DHT22;60945;48.516;-2.768;2024-01-25T04:59:20;12.70;86.30
72814;DHT22;60945;48.516;-2.768;2024-01-25T05:01:45;12.70;85.80
72814;DHT22;60945;48.516;-2.768;2024-01-25T05:04:11;12.70;86.00
72814;DHT22;60945;48.516;-2.768;2024-01-25T05:06:36;12.80;85.90
72814;DHT22;60945;48.516;-2.768;2024-01-25T05:09:02;12.90;85.40
72814;DHT22;60945;48.516;-2.768;2024-01-25T05:11:28;12.80;85.30
72814;DHT22;60945;48.516;-2.768;2024-01-25T05:13:54;12.70;86.10
72814;DHT22;60945;48.516;-2.768;2024-01-25T05:16:19;12.60;86.50
72814;DHT22;60945;48.516;-2.768;2024-01-25T05:18:45;12.50;87.20
72814;DHT22;60945;48.516;-2.768;2024-01-25T05:21:10;12.50;87.80
72814;DHT22;60945;48.516;-2.768;2024-01-25T05:23:36;12.50;87.80
72814;DHT22;60945;48.516;-2.768;2024-01-25T05:26:02;12.40;88.40
72814;DHT22;60945;48.516;-2.768;2024-01-25T05:28:27;12.40;88.40
72814;DHT22;60945;48.516;-2.768;2024-01-25T05:30:53;12.30;88.80
72814;DHT22;60945;48.516;-2.768;2024-01-25T05:33:19;12.40;88.80
72814;DHT22;60945;48.516;-2.768;2024-01-25T05:35:44;12.50;88.20
72814;DHT22;60945;48.516;-2.768;2024-01-25T05:38:10;12.60;87.80
72814;DHT22;60945;48.516;-2.768;2024-01-25T05:40:35;12.70;87.30
72814;DHT22;60945;48.516;-2.768;2024-01-25T05:43:01;12.80;87.00
72814;DHT22;60945;48.516;-2.768;2024-01-25T05:45:27;12.90;86.60
72814;DHT22;60945;48.516;-2.768;2024-01-25T05:47:52;12.90;86.70
72814;DHT22;60945;48.516;-2.768;2024-01-25T05:50:18;12.90;86.50
72814;DHT22;60945;48.516;-2.768;2024-01-25T05:52:44;12.80;86.70
72814;DHT22;60945;48.516;-2.768;2024-01-25T05:55:09;12.80;87.60
72814;DHT22;60945;48.516;-2.768;2024-01-25T05:57:36;12.80;87.10
72814;DHT22;60945;48.516;-2.768;2024-01-25T06:00:03;12.80;87.50
72814;DHT22;60945;48.516;-2.768;2024-01-25T06:02:28;12.90;87.60
72814;DHT22;60945;48.516;-2.768;2024-01-25T06:04:54;12.90;87.00
72814;DHT22;60945;48.516;-2.768;2024-01-25T06:07:23;12.80;87.90
72814;DHT22;60945;48.516;-2.768;2024-01-25T06:09:49;12.90;86.90
72814;DHT22;60945;48.516;-2.768;2024-01-25T06:12:14;12.90;87.30
72814;DHT22;60945;48.516;-2.768;2024-01-25T06:14:40;12.90;87.50
72814;DHT22;60945;48.516;-2.768;2024-01-25T06:17:06;13.00;87.10
72814;DHT22;60945;48.516;-2.768;2024-01-25T06:19:32;13.10;87.10
72814;DHT22;60945;48.516;-2.768;2024-01-25T06:21:58;13.00;86.80
72814;DHT22;60945;48.516;-2.768;2024-01-25T06:24:24;12.90;87.90
72814;DHT22;60945;48.516;-2.768;2024-01-25T06:26:50;13.00;88.20
72814;DHT22;60945;48.516;-2.768;2024-01-25T06:29:15;13.00;88.30
72814;DHT22;60945;48.516;-2.768;2024-01-25T06:31:42;13.00;87.90
72814;DHT22;60945;48.516;-2.768;2024-01-25T06:34:09;13.00;88.30
72814;DHT22;60945;48.516;-2.768;2024-01-25T06:36:34;13.00;89.10
72814;DHT22;60945;48.516;-2.768;2024-01-25T06:39:00;12.90;89.80
72814;DHT22;60945;48.516;-2.768;2024-01-25T06:41:25;12.90;90.00
72814;DHT22;60945;48.516;-2.768;2024-01-25T06:43:51;13.00;89.70
72814;DHT22;60945;48.516;-2.768;2024-01-25T06:46:17;13.10;89.50
72814;DHT22;60945;48.516;-2.768;2024-01-25T06:48:43;13.10;88.90
72814;DHT22;60945;48.516;-2.768;2024-01-25T06:51:09;13.00;89.30
72814;DHT22;60945;48.516;-2.768;2024-01-25T06:53:34;13.00;90.20
72814;DHT22;60945;48.516;-2.768;2024-01-25T06:56:00;12.80;91.20
72814;DHT22;60945;48.516;-2.768;2024-01-25T06:58:25;12.80;91.70
72814;DHT22;60945;48.516;-2.768;2024-01-25T07:00:52;12.90;90.90
72814;DHT22;60945;48.516;-2.768;2024-01-25T07:03:18;12.80;91.50
72814;DHT22;60945;48.516;-2.768;2024-01-25T07:05:44;12.90;91.20
72814;DHT22;60945;48.516;-2.768;2024-01-25T07:08:10;13.00;90.60
72814;DHT22;60945;48.516;-2.768;2024-01-25T07:10:39;13.00;90.50
72814;DHT22;60945;48.516;-2.768;2024-01-25T07:13:05;13.00;90.10
72814;DHT22;60945;48.516;-2.768;2024-01-25T07:15:32;13.00;89.60
72814;DHT22;60945;48.516;-2.768;2024-01-25T07:17:57;13.00;89.70
72814;DHT22;60945;48.516;-2.768;2024-01-25T07:20:23;13.10;89.80
72814;DHT22;60945;48.516;-2.768;2024-01-25T07:22:49;13.30;88.60
72814;DHT22;60945;48.516;-2.768;2024-01-25T07:25:14;13.40;87.50
72814;DHT22;60945;48.516;-2.768;2024-01-25T07:27:44;13.40;86.70
72814;DHT22;60945;48.516;-2.768;2024-01-25T07:30:10;13.40;86.50
72814;DHT22;60945;48.516;-2.768;2024-01-25T07:32:37;13.10;88.10
72814;DHT22;60945;48.516;-2.768;2024-01-25T07:35:04;13.20;87.40
72814;DHT22;60945;48.516;-2.768;2024-01-25T07:37:30;13.00;88.80
72814;DHT22;60945;48.516;-2.768;2024-01-25T07:39:56;12.80;89.40
72814;DHT22;60945;48.516;-2.768;2024-01-25T07:42:21;12.80;90.10
72814;DHT22;60945;48.516;-2.768;2024-01-25T07:44:47;12.70;90.30
72814;DHT22;60945;48.516;-2.768;2024-01-25T07:47:14;12.80;90.00
72814;DHT22;60945;48.516;-2.768;2024-01-25T07:49:40;12.80;89.90
72814;DHT22;60945;48.516;-2.768;2024-01-25T07:52:06;12.70;90.20
72814;DHT22;60945;48.516;-2.768;2024-01-25T07:54:32;12.70;90.10
72814;DHT22;60945;48.516;-2.768;2024-01-25T07:56:57;12.70;90.30
72814;DHT22;60945;48.516;-2.768;2024-01-25T07:59:23;12.80;90.00
72814;DHT22;60945;48.516;-2.768;2024-01-25T08:01:49;12.80;89.30
72814;DHT22;60945;48.516;-2.768;2024-01-25T08:04:14;12.80;89.50
72814;DHT22;60945;48.516;-2.768;2024-01-25T08:06:40;12.80;89.40
72814;DHT22;60945;48.516;-2.768;2024-01-25T08:09:05;12.90;89.10
72814;DHT22;60945;48.516;-2.768;2024-01-25T08:11:31;12.90;88.60
72814;DHT22;60945;48.516;-2.768;2024-01-25T08:13:57;12.90;88.10
72814;DHT22;60945;48.516;-2.768;2024-01-25T08:16:22;12.80;88.40
72814;DHT22;60945;48.516;-2.768;2024-01-25T08:18:49;12.80;88.30
72814;DHT22;60945;48.516;-2.768;2024-01-25T08:21:14;12.80;88.40
72814;DHT22;60945;48.516;-2.768;2024-01-25T08:23:40;12.70;88.80
72814;DHT22;60945;48.516;-2.768;2024-01-25T08:26:06;12.70;89.10
72814;DHT22;60945;48.516;-2.768;2024-01-25T08:28:37;12.80;89.10
72814;DHT22;60945;48.516;-2.768;2024-01-25T08:31:03;12.80;88.80
72814;DHT22;60945;48.516;-2.768;2024-01-25T08:33:29;12.80;88.80
72814;DHT22;60945;48.516;-2.768;2024-01-25T08:35:54;12.80;88.40
72814;DHT22;60945;48.516;-2.768;2024-01-25T08:38:20;12.90;88.60
72814;DHT22;60945;48.516;-2.768;2024-01-25T08:40:45;12.90;88.70
72814;DHT22;60945;48.516;-2.768;2024-01-25T08:43:11;12.80;88.60
72814;DHT22;60945;48.516;-2.768;2024-01-25T08:45:37;12.70;89.50
72814;DHT22;60945;48.516;-2.768;2024-01-25T08:48:04;12.90;89.00
72814;DHT22;60945;48.516;-2.768;2024-01-25T08:50:29;12.90;89.10
72814;DHT22;60945;48.516;-2.768;2024-01-25T08:52:55;12.90;88.60
72814;DHT22;60945;48.516;-2.768;2024-01-25T08:55:21;13.00;88.10
72814;DHT22;60945;48.516;-2.768;2024-01-25T08:57:48;13.10;88.00
72814;DHT22;60945;48.516;-2.768;2024-01-25T09:00:14;13.30;86.70
72814;DHT22;60945;48.516;-2.768;2024-01-25T09:02:40;13.40;85.80
72814;DHT22;60945;48.516;-2.768;2024-01-25T09:05:06;13.50;85.40
72814;DHT22;60945;48.516;-2.768;2024-01-25T09:07:32;13.70;84.80
72814;DHT22;60945;48.516;-2.768;2024-01-25T09:09:58;13.70;84.60
72814;DHT22;60945;48.516;-2.768;2024-01-25T09:12:24;13.60;84.20
72814;DHT22;60945;48.516;-2.768;2024-01-25T09:14:49;13.50;84.70
72814;DHT22;60945;48.516;-2.768;2024-01-25T09:17:15;13.50;85.40
72814;DHT22;60945;48.516;-2.768;2024-01-25T09:19:50;13.70;85.00
72814;DHT22;60945;48.516;-2.768;2024-01-25T09:22:17;13.70;84.50
72814;DHT22;60945;48.516;-2.768;2024-01-25T09:24:45;13.90;83.40
72814;DHT22;60945;48.516;-2.768;2024-01-25T09:27:11;14.00;82.90
72814;DHT22;60945;48.516;-2.768;2024-01-25T09:29:39;14.10;82.70
72814;DHT22;60945;48.516;-2.768;2024-01-25T09:32:06;14.00;83.00
72814;DHT22;60945;48.516;-2.768;2024-01-25T09:34:33;14.20;82.30
72814;DHT22;60945;48.516;-2.768;2024-01-25T09:36:59;14.40;81.60
72814;DHT22;60945;48.516;-2.768;2024-01-25T09:39:24;14.30;81.40
72814;DHT22;60945;48.516;-2.768;2024-01-25T09:41:50;14.10;82.80
72814;DHT22;60945;48.516;-2.768;2024-01-25T09:44:16;14.20;82.40
72814;DHT22;60945;48.516;-2.768;2024-01-25T09:46:43;14.30;82.10
72814;DHT22;60945;48.516;-2.768;2024-01-25T09:49:11;14.30;81.80
72814;DHT22;60945;48.516;-2.768;2024-01-25T09:51:39;14.40;81.50
72814;DHT22;60945;48.516;-2.768;2024-01-25T09:54:05;14.90;79.80
72814;DHT22;60945;48.516;-2.768;2024-01-25T09:56:34;14.90;78.90
72814;DHT22;60945;48.516;-2.768;2024-01-25T09:59:01;14.90;79.20
72814;DHT22;60945;48.516;-2.768;2024-01-25T10:01:27;14.90;78.60
72814;DHT22;60945;48.516;-2.768;2024-01-25T10:03:53;14.80;79.50
72814;DHT22;60945;48.516;-2.768;2024-01-25T10:06:21;14.80;78.60
72814;DHT22;60945;48.516;-2.768;2024-01-25T10:08:47;14.40;80.40
72814;DHT22;60945;48.516;-2.768;2024-01-25T10:11:13;14.50;80.90
72814;DHT22;60945;48.516;-2.768;2024-01-25T10:13:43;14.50;80.10
72814;DHT22;60945;48.516;-2.768;2024-01-25T10:16:18;14.40;80.90
72814;DHT22;60945;48.516;-2.768;2024-01-25T10:18:47;14.30;81.00
72814;DHT22;60945;48.516;-2.768;2024-01-25T10:21:14;14.30;80.90
72814;DHT22;60945;48.516;-2.768;2024-01-25T10:23:41;14.30;81.00
72814;DHT22;60945;48.516;-2.768;2024-01-25T10:26:08;14.50;80.40
72814;DHT22;60945;48.516;-2.768;2024-01-25T10:28:34;14.60;79.70
72814;DHT22;60945;48.516;-2.768;2024-01-25T10:31:01;14.70;79.50
72814;DHT22;60945;48.516;-2.768;2024-01-25T10:33:31;14.60;79.20
72814;DHT22;60945;48.516;-2.768;2024-01-25T10:36:03;14.50;79.70
72814;DHT22;60945;48.516;-2.768;2024-01-25T10:38:33;14.50;80.00
72814;DHT22;60945;48.516;-2.768;2024-01-25T10:41:01;14.70;80.10
72814;DHT22;60945;48.516;-2.768;2024-01-25T10:43:28;14.50;79.70
72814;DHT22;60945;48.516;-2.768;2024-01-25T10:45:56;14.60;79.90
72814;DHT22;60945;48.516;-2.768;2024-01-25T10:48:27;14.70;79.30
72814;DHT22;60945;48.516;-2.768;2024-01-25T10:50:56;14.60;80.50
72814;DHT22;60945;48.516;-2.768;2024-01-25T10:53:23;14.90;78.90
72814;DHT22;60945;48.516;-2.768;2024-01-25T10:55:50;14.80;79.10
72814;DHT22;60945;48.516;-2.768;2024-01-25T10:58:16;14.80;79.30
72814;DHT22;60945;48.516;-2.768;2024-01-25T11:00:52;14.70;79.90
72814;DHT22;60945;48.516;-2.768;2024-01-25T11:03:18;14.70;80.20
72814;DHT22;60945;48.516;-2.768;2024-01-25T11:05:46;14.90;78.90
72814;DHT22;60945;48.516;-2.768;2024-01-25T11:08:19;14.90;79.60
72814;DHT22;60945;48.516;-2.768;2024-01-25T11:10:51;15.40;78.40
72814;DHT22;60945;48.516;-2.768;2024-01-25T11:13:23;15.50;76.90
72814;DHT22;60945;48.516;-2.768;2024-01-25T11:15:50;15.60;77.20
72814;DHT22;60945;48.516;-2.768;2024-01-25T11:18:16;15.10;77.80
72814;DHT22;60945;48.516;-2.768;2024-01-25T11:20:42;15.30;76.40
72814;DHT22;60945;48.516;-2.768;2024-01-25T11:23:07;14.90;78.50
72814;DHT22;60945;48.516;-2.768;2024-01-25T11:25:37;15.10;78.20
72814;DHT22;60945;48.516;-2.768;2024-01-25T11:28:05;15.40;76.80
72814;DHT22;60945;48.516;-2.768;2024-01-25T11:30:33;15.60;76.10
72814;DHT22;60945;48.516;-2.768;2024-01-25T11:33:00;16.00;74.90
72814;DHT22;60945;48.516;-2.768;2024-01-25T11:35:26;16.20;74.10
72814;DHT22;60945;48.516;-2.768;2024-01-25T11:37:52;16.70;72.00
72814;DHT22;60945;48.516;-2.768;2024-01-25T11:40:18;16.40;72.20
72814;DHT22;60945;48.516;-2.768;2024-01-25T11:42:48;16.60;71.60
72814;DHT22;60945;48.516;-2.768;2024-01-25T11:45:14;17.00;70.30
72814;DHT22;60945;48.516;-2.768;2024-01-25T11:47:42;16.80;70.40
72814;DHT22;60945;48.516;-2.768;2024-01-25T11:50:10;16.50;71.60
72814;DHT22;60945;48.516;-2.768;2024-01-25T11:52:36;16.20;72.30
72814;DHT22;60945;48.516;-2.768;2024-01-25T11:55:06;16.50;72.20
72814;DHT22;60945;48.516;-2.768;2024-01-25T11:57:38;16.80;70.50
72814;DHT22;60945;48.516;-2.768;2024-01-25T12:00:07;16.50;71.10
72814;DHT22;60945;48.516;-2.768;2024-01-25T12:02:35;16.40;71.50
72814;DHT22;60945;48.516;-2.768;2024-01-25T12:05:02;16.50;71.40
72814;DHT22;60945;48.516;-2.768;2024-01-25T12:07:30;16.10;73.10
72814;DHT22;60945;48.516;-2.768;2024-01-25T12:10:03;15.80;73.70
72814;DHT22;60945;48.516;-2.768;2024-01-25T12:12:29;15.90;72.20
72814;DHT22;60945;48.516;-2.768;2024-01-25T12:14:58;16.00;73.20
72814;DHT22;60945;48.516;-2.768;2024-01-25T12:17:27;16.50;71.60
72814;DHT22;60945;48.516;-2.768;2024-01-25T12:19:57;16.90;70.00
72814;DHT22;60945;48.516;-2.768;2024-01-25T12:22:26;17.20;69.60
72814;DHT22;60945;48.516;-2.768;2024-01-25T12:24:58;17.50;67.90
72814;DHT22;60945;48.516;-2.768;2024-01-25T12:27:25;17.10;67.60
72814;DHT22;60945;48.516;-2.768;2024-01-25T12:29:52;16.70;69.80
72814;DHT22;60945;48.516;-2.768;2024-01-25T12:32:21;17.10;68.60
72814;DHT22;60945;48.516;-2.768;2024-01-25T12:34:56;16.80;69.40
72814;DHT22;60945;48.516;-2.768;2024-01-25T12:37:23;16.50;70.20
72814;DHT22;60945;48.516;-2.768;2024-01-25T12:39:52;16.40;70.60
72814;DHT22;60945;48.516;-2.768;2024-01-25T12:42:18;16.80;70.20
72814;DHT22;60945;48.516;-2.768;2024-01-25T12:44:44;17.30;68.50
72814;DHT22;60945;48.516;-2.768;2024-01-25T12:47:11;17.60;68.20
72814;DHT22;60945;48.516;-2.768;2024-01-25T12:49:40;17.60;67.70
72814;DHT22;60945;48.516;-2.768;2024-01-25T12:52:10;17.60;67.30
72814;DHT22;60945;48.516;-2.768;2024-01-25T12:54:36;17.90;66.50
72814;DHT22;60945;48.516;-2.768;2024-01-25T12:57:03;17.90;66.60
72814;DHT22;60945;48.516;-2.768;2024-01-25T12:59:28;17.40;67.60
72814;DHT22;60945;48.516;-2.768;2024-01-25T13:01:54;17.40;67.50
72814;DHT22;60945;48.516;-2.768;2024-01-25T13:04:20;17.70;66.30
72814;DHT22;60945;48.516;-2.768;2024-01-25T13:06:46;17.20;67.90
72814;DHT22;60945;48.516;-2.768;2024-01-25T13:09:12;17.80;67.00
72814;DHT22;60945;48.516;-2.768;2024-01-25T13:11:43;17.80;64.40
72814;DHT22;60945;48.516;-2.768;2024-01-25T13:14:09;17.20;66.20
72814;DHT22;60945;48.516;-2.768;2024-01-25T13:16:35;17.50;65.90
72814;DHT22;60945;48.516;-2.768;2024-01-25T13:19:00;17.40;65.20
72814;DHT22;60945;48.516;-2.768;2024-01-25T13:21:26;17.20;66.40
72814;DHT22;60945;48.516;-2.768;2024-01-25T13:23:51;17.20;66.40
72814;DHT22;60945;48.516;-2.768;2024-01-25T13:26:17;17.20;66.40
72814;DHT22;60945;48.516;-2.768;2024-01-25T13:28:43;17.40;65.50
72814;DHT22;60945;48.516;-2.768;2024-01-25T13:31:08;16.90;67.10
72814;DHT22;60945;48.516;-2.768;2024-01-25T13:33:34;16.90;66.80
72814;DHT22;60945;48.516;-2.768;2024-01-25T13:35:59;16.90;68.10
72814;DHT22;60945;48.516;-2.768;2024-01-25T13:38:25;16.90;67.80
72814;DHT22;60945;48.516;-2.768;2024-01-25T13:40:51;17.30;67.10
72814;DHT22;60945;48.516;-2.768;2024-01-25T13:43:16;18.20;64.50
72814;DHT22;60945;48.516;-2.768;2024-01-25T13:45:42;18.10;63.60
72814;DHT22;60945;48.516;-2.768;2024-01-25T13:48:08;17.80;65.20
72814;DHT22;60945;48.516;-2.768;2024-01-25T13:50:33;17.40;65.90
72814;DHT22;60945;48.516;-2.768;2024-01-25T13:52:59;17.20;65.90
72814;DHT22;60945;48.516;-2.768;2024-01-25T13:55:25;16.90;66.90
72814;DHT22;60945;48.516;-2.768;2024-01-25T13:57:50;17.10;66.60
72814;DHT22;60945;48.516;-2.768;2024-01-25T14:00:16;16.50;67.30
72814;DHT22;60945;48.516;-2.768;2024-01-25T14:02:42;17.10;65.80
72814;DHT22;60945;48.516;-2.768;2024-01-25T14:05:11;17.80;63.10
72814;DHT22;60945;48.516;-2.768;2024-01-25T14:07:36;18.80;60.20
72814;DHT22;60945;48.516;-2.768;2024-01-25T14:10:02;20.30;56.70
72814;DHT22;60945;48.516;-2.768;2024-01-25T14:12:28;20.60;54.70
72814;DHT22;60945;48.516;-2.768;2024-01-25T14:14:53;19.80;56.80
72814;DHT22;60945;48.516;-2.768;2024-01-25T14:17:19;19.60;57.90
72814;DHT22;60945;48.516;-2.768;2024-01-25T14:19:44;19.70;58.10
72814;DHT22;60945;48.516;-2.768;2024-01-25T14:22:10;19.40;57.30
72814;DHT22;60945;48.516;-2.768;2024-01-25T14:24:36;19.60;58.00
72814;DHT22;60945;48.516;-2.768;2024-01-25T14:27:02;18.90;59.50
72814;DHT22;60945;48.516;-2.768;2024-01-25T14:29:28;19.10;59.60
72814;DHT22;60945;48.516;-2.768;2024-01-25T14:31:57;20.30;57.10
72814;DHT22;60945;48.516;-2.768;2024-01-25T14:34:23;21.50;54.30
72814;DHT22;60945;48.516;-2.768;2024-01-25T14:36:49;21.90;52.70
72814;DHT22;60945;48.516;-2.768;2024-01-25T14:39:16;22.80;51.10
72814;DHT22;60945;48.516;-2.768;2024-01-25T14:41:45;22.50;50.70
72814;DHT22;60945;48.516;-2.768;2024-01-25T14:44:11;20.30;55.30
72814;DHT22;60945;48.516;-2.768;2024-01-25T14:46:36;19.80;57.80
72814;DHT22;60945;48.516;-2.768;2024-01-25T14:49:03;19.40;59.50
72814;DHT22;60945;48.516;-2.768;2024-01-25T14:51:29;19.60;58.90
72814;DHT22;60945;48.516;-2.768;2024-01-25T14:53:55;19.20;59.90
72814;DHT22;60945;48.516;-2.768;2024-01-25T14:56:21;18.60;62.00
72814;DHT22;60945;48.516;-2.768;2024-01-25T14:58:46;18.90;61.30
72814;DHT22;60945;48.516;-2.768;2024-01-25T15:01:16;18.40;63.00
72814;DHT22;60945;48.516;-2.768;2024-01-25T15:03:48;19.00;61.60
72814;DHT22;60945;48.516;-2.768;2024-01-25T15:06:13;19.00;61.40
72814;DHT22;60945;48.516;-2.768;2024-01-25T15:08:39;20.10;58.70
72814;DHT22;60945;48.516;-2.768;2024-01-25T15:11:06;20.90;56.00